WMT8XX LHBP-LIMC
Flight info
| Callsign | WMT8XX |
|---|---|
| Flight time | 1h 24m |
| Altitude | 36000 |
| Route | GILEP DCT ZOLKU DCT SUBES DCT SUNIS DCT DETSA/N0454F350 DCT RENTA DCT ATPED/N0446F310 DCT LUSIL/N0365F190 M984 EVRIP |
| Aircraft | A321/M-SDE1E2E3FGIJ1J4RWXY/LB1 |
Departure
| Time | 2026-02-17 13:19 |
|---|---|
| Airport | Budapest Liszt Ferenc International Airport (LHBP) |
Arrival
| Time | 2026-02-17 14:43 |
|---|---|
| Airport | Milan Malpensa International Airport (LIMC) |
| Time | Latitude | Longitude | Altitude | Speed | Heading |
|---|---|---|---|---|---|
| 2026-02-17 12:49 | 47.43391 | 19.25599 | 457 ft | 0 kts | 312° |
| 2026-02-17 13:10 | 47.43385 | 19.25609 | 456 ft | 3 kts | 317° |
| 2026-02-17 13:10 | 47.43370 | 19.25626 | 453 ft | 3 kts | 341° |
| 2026-02-17 13:10 | 47.43352 | 19.25630 | 454 ft | 3 kts | 19° |
| 2026-02-17 13:11 | 47.43321 | 19.25598 | 456 ft | 3 kts | 43° |
| 2026-02-17 13:11 | 47.43306 | 19.25578 | 456 ft | 3 kts | 32° |
| 2026-02-17 13:11 | 47.43292 | 19.25568 | 457 ft | 1 kts | 1° |
| 2026-02-17 13:11 | 47.43278 | 19.25568 | 457 ft | 3 kts | 351° |
| 2026-02-17 13:12 | 47.43259 | 19.25576 | 456 ft | 3 kts | 329° |
| 2026-02-17 13:12 | 47.43243 | 19.25593 | 455 ft | 3 kts | 315° |
| 2026-02-17 13:12 | 47.43231 | 19.25612 | 455 ft | 1 kts | 312° |
| 2026-02-17 13:12 | 47.43229 | 19.25614 | 455 ft | 0 kts | 312° |
| 2026-02-17 13:15 | 47.43239 | 19.25598 | 455 ft | 4 kts | 313° |
| 2026-02-17 13:15 | 47.43268 | 19.25552 | 457 ft | 8 kts | 313° |
| 2026-02-17 13:15 | 47.43314 | 19.25480 | 457 ft | 11 kts | 313° |
| 2026-02-17 13:15 | 47.43333 | 19.25382 | 457 ft | 11 kts | 245° |
| 2026-02-17 13:16 | 47.43284 | 19.25306 | 457 ft | 10 kts | 220° |
| 2026-02-17 13:16 | 47.43226 | 19.25231 | 457 ft | 12 kts | 222° |
| 2026-02-17 13:16 | 47.43163 | 19.25145 | 457 ft | 13 kts | 222° |
| 2026-02-17 13:16 | 47.43100 | 19.25059 | 457 ft | 11 kts | 224° |
| 2026-02-17 13:17 | 47.43090 | 19.24957 | 456 ft | 9 kts | 302° |
| 2026-02-17 13:17 | 47.43110 | 19.24925 | 457 ft | 0 kts | 313° |
| 2026-02-17 13:18 | 47.43115 | 19.24916 | 457 ft | 6 kts | 313° |
| 2026-02-17 13:18 | 47.43297 | 19.24621 | 453 ft | 76 kts | 312° |
| 2026-02-17 13:18 | 47.43810 | 19.23794 | 455 ft | 139 kts | 312° |
| 2026-02-17 13:19 | 47.45249 | 19.21494 | 1759 ft | 151 kts | 316° |
| 2026-02-17 13:19 | 47.46023 | 19.20302 | 2156 ft | 171 kts | 313° |
| 2026-02-17 13:19 | 47.46873 | 19.18920 | 2456 ft | 193 kts | 313° |
| 2026-02-17 13:19 | 47.47831 | 19.17348 | 2738 ft | 218 kts | 312° |
| 2026-02-17 13:20 | 47.48660 | 19.15415 | 3408 ft | 230 kts | 292° |
| 2026-02-17 13:20 | 47.48893 | 19.12971 | 3921 ft | 251 kts | 266° |
| 2026-02-17 13:20 | 47.48337 | 19.10473 | 4646 ft | 264 kts | 240° |
| 2026-02-17 13:20 | 47.47035 | 19.08512 | 5380 ft | 276 kts | 215° |
| 2026-02-17 13:21 | 47.45296 | 19.07188 | 6131 ft | 284 kts | 210° |
| 2026-02-17 13:21 | 47.43505 | 19.05906 | 6880 ft | 288 kts | 210° |
| 2026-02-17 13:21 | 47.41689 | 19.04615 | 7662 ft | 291 kts | 210° |
| 2026-02-17 13:21 | 47.39880 | 19.03328 | 8445 ft | 294 kts | 210° |
| 2026-02-17 13:22 | 47.38030 | 19.02007 | 9237 ft | 297 kts | 210° |
| 2026-02-17 13:22 | 47.36162 | 19.00666 | 9990 ft | 300 kts | 210° |
| 2026-02-17 13:22 | 47.34251 | 18.99261 | 10388 ft | 317 kts | 210° |
| 2026-02-17 13:23 | 47.30866 | 18.94818 | 10854 ft | 340 kts | 248° |
| 2026-02-17 13:23 | 47.30224 | 18.91501 | 11445 ft | 337 kts | 269° |
| 2026-02-17 13:23 | 47.30453 | 18.88105 | 12106 ft | 334 kts | 290° |
| 2026-02-17 13:23 | 47.31443 | 18.85028 | 12785 ft | 334 kts | 302° |
| 2026-02-17 13:24 | 47.32610 | 18.82047 | 13477 ft | 338 kts | 302° |
| 2026-02-17 13:24 | 47.33801 | 18.79038 | 14095 ft | 341 kts | 302° |
| 2026-02-17 13:24 | 47.35008 | 18.75990 | 14721 ft | 345 kts | 301° |
| 2026-02-17 13:24 | 47.36219 | 18.72917 | 15359 ft | 348 kts | 301° |
| 2026-02-17 13:25 | 47.37437 | 18.69805 | 15992 ft | 352 kts | 300° |
| 2026-02-17 13:25 | 47.38665 | 18.66656 | 16631 ft | 355 kts | 300° |
| 2026-02-17 13:25 | 47.39902 | 18.63469 | 17263 ft | 359 kts | 300° |
| 2026-02-17 13:25 | 47.41134 | 18.60235 | 17870 ft | 363 kts | 297° |
| 2026-02-17 13:26 | 47.42064 | 18.56762 | 18477 ft | 366 kts | 287° |
| 2026-02-17 13:26 | 47.42802 | 18.53137 | 19010 ft | 370 kts | 286° |
| 2026-02-17 13:26 | 47.43535 | 18.49535 | 19585 ft | 373 kts | 286° |
| 2026-02-17 13:27 | 47.45049 | 18.42122 | 20655 ft | 381 kts | 285° |
| 2026-02-17 13:27 | 47.45817 | 18.38357 | 21188 ft | 384 kts | 284° |
| 2026-02-17 13:27 | 47.46588 | 18.34556 | 21720 ft | 388 kts | 284° |
| 2026-02-17 13:27 | 47.47363 | 18.30729 | 22247 ft | 390 kts | 283° |
| 2026-02-17 13:28 | 47.48144 | 18.26865 | 22759 ft | 393 kts | 283° |
| 2026-02-17 13:28 | 47.48897 | 18.22965 | 23262 ft | 396 kts | 281° |
| 2026-02-17 13:28 | 47.49583 | 18.19018 | 23728 ft | 397 kts | 281° |
| 2026-02-17 13:28 | 47.50224 | 18.15041 | 24175 ft | 398 kts | 281° |
| 2026-02-17 13:29 | 47.50849 | 18.11037 | 24592 ft | 401 kts | 281° |
| 2026-02-17 13:29 | 47.51478 | 18.07003 | 25011 ft | 404 kts | 281° |
| 2026-02-17 13:29 | 47.52120 | 18.02945 | 25394 ft | 406 kts | 281° |
| 2026-02-17 13:29 | 47.52778 | 17.98865 | 25783 ft | 409 kts | 281° |
| 2026-02-17 13:30 | 47.53447 | 17.94759 | 26174 ft | 411 kts | 281° |
| 2026-02-17 13:30 | 47.54116 | 17.90683 | 26554 ft | 414 kts | 281° |
| 2026-02-17 13:30 | 47.54669 | 17.86494 | 26922 ft | 414 kts | 274° |
| 2026-02-17 13:31 | 47.54246 | 17.78033 | 27617 ft | 416 kts | 255° |
| 2026-02-17 13:31 | 47.53268 | 17.73989 | 27950 ft | 419 kts | 245° |
| 2026-02-17 13:31 | 47.51924 | 17.70145 | 28280 ft | 422 kts | 243° |
| 2026-02-17 13:31 | 47.50550 | 17.66291 | 28629 ft | 425 kts | 243° |
| 2026-02-17 13:32 | 47.49170 | 17.62414 | 28994 ft | 427 kts | 243° |
| 2026-02-17 13:32 | 47.47782 | 17.58518 | 29351 ft | 430 kts | 243° |
| 2026-02-17 13:32 | 47.46385 | 17.54599 | 29688 ft | 432 kts | 243° |
| 2026-02-17 13:32 | 47.44980 | 17.50669 | 30064 ft | 432 kts | 243° |
| 2026-02-17 13:33 | 47.43573 | 17.46744 | 30420 ft | 432 kts | 243° |
| 2026-02-17 13:33 | 47.42642 | 17.44141 | 30646 ft | 432 kts | 244° |
| 2026-02-17 13:33 | 47.41451 | 17.40077 | 30967 ft | 432 kts | 250° |
| 2026-02-17 13:33 | 47.40403 | 17.35922 | 31296 ft | 432 kts | 250° |
| 2026-02-17 13:34 | 47.39350 | 17.31770 | 31626 ft | 432 kts | 250° |
| 2026-02-17 13:34 | 47.38292 | 17.27616 | 31943 ft | 433 kts | 251° |
| 2026-02-17 13:34 | 47.36880 | 17.22095 | 32311 ft | 435 kts | 251° |
| 2026-02-17 13:35 | 47.35091 | 17.15099 | 32803 ft | 435 kts | 252° |
| 2026-02-17 13:35 | 47.34020 | 17.10915 | 33092 ft | 436 kts | 252° |
| 2026-02-17 13:35 | 47.32959 | 17.06785 | 33390 ft | 436 kts | 252° |
| 2026-02-17 13:35 | 47.31880 | 17.02599 | 33694 ft | 437 kts | 252° |
| 2026-02-17 13:36 | 47.30799 | 16.98413 | 33951 ft | 437 kts | 252° |
| 2026-02-17 13:36 | 47.29718 | 16.94236 | 34196 ft | 436 kts | 252° |
| 2026-02-17 13:36 | 47.28636 | 16.90060 | 34446 ft | 436 kts | 252° |
| 2026-02-17 13:36 | 47.27555 | 16.85889 | 34698 ft | 436 kts | 252° |
| 2026-02-17 13:37 | 47.26471 | 16.81719 | 34942 ft | 436 kts | 252° |
| 2026-02-17 13:37 | 47.25383 | 16.77555 | 35185 ft | 436 kts | 252° |
| 2026-02-17 13:37 | 47.24294 | 16.73388 | 35442 ft | 435 kts | 253° |
| 2026-02-17 13:37 | 47.23210 | 16.69236 | 35688 ft | 435 kts | 253° |
| 2026-02-17 13:38 | 47.22124 | 16.65078 | 35760 ft | 434 kts | 253° |
| 2026-02-17 13:38 | 47.19954 | 16.56787 | 35767 ft | 434 kts | 253° |
| 2026-02-17 13:39 | 47.16683 | 16.44379 | 35768 ft | 434 kts | 253° |
| 2026-02-17 13:39 | 47.14578 | 16.36137 | 35767 ft | 431 kts | 258° |
| 2026-02-17 13:40 | 47.13706 | 16.27523 | 35764 ft | 426 kts | 268° |
| 2026-02-17 13:40 | 47.13139 | 16.18847 | 35771 ft | 427 kts | 268° |
| 2026-02-17 13:41 | 47.12548 | 16.10158 | 35776 ft | 428 kts | 267° |
| 2026-02-17 13:41 | 47.11957 | 16.01468 | 35771 ft | 428 kts | 267° |
| 2026-02-17 13:42 | 47.11359 | 15.92778 | 35777 ft | 428 kts | 267° |
| 2026-02-17 13:43 | 47.10450 | 15.79750 | 35769 ft | 427 kts | 268° |
| 2026-02-17 13:43 | 47.09839 | 15.71077 | 35777 ft | 426 kts | 268° |
| 2026-02-17 13:44 | 47.09234 | 15.62485 | 35779 ft | 426 kts | 268° |
| 2026-02-17 13:44 | 47.08615 | 15.53851 | 35778 ft | 425 kts | 268° |
| 2026-02-17 13:45 | 47.07985 | 15.45238 | 35777 ft | 425 kts | 268° |
| 2026-02-17 13:45 | 47.07344 | 15.36622 | 35753 ft | 425 kts | 268° |
| 2026-02-17 13:46 | 47.06700 | 15.27991 | 35751 ft | 426 kts | 268° |
| 2026-02-17 13:46 | 47.06050 | 15.19351 | 35755 ft | 426 kts | 268° |
| 2026-02-17 13:47 | 47.05068 | 15.06370 | 35758 ft | 427 kts | 268° |
| 2026-02-17 13:47 | 47.04405 | 14.97711 | 35761 ft | 427 kts | 268° |
| 2026-02-17 13:48 | 47.03728 | 14.89100 | 35727 ft | 428 kts | 268° |
| 2026-02-17 13:48 | 47.03043 | 14.80449 | 35752 ft | 427 kts | 268° |
| 2026-02-17 13:49 | 47.02358 | 14.71801 | 35764 ft | 427 kts | 268° |
| 2026-02-17 13:49 | 47.01668 | 14.63152 | 35764 ft | 427 kts | 268° |
| 2026-02-17 13:50 | 47.00971 | 14.54500 | 35782 ft | 427 kts | 268° |
| 2026-02-17 13:51 | 46.99906 | 14.41539 | 35794 ft | 426 kts | 269° |
| 2026-02-17 13:51 | 46.99194 | 14.32953 | 35807 ft | 423 kts | 269° |
| 2026-02-17 13:52 | 46.98485 | 14.24459 | 35798 ft | 422 kts | 269° |
| 2026-02-17 13:52 | 46.97761 | 14.15927 | 35808 ft | 421 kts | 269° |
| 2026-02-17 13:53 | 46.97036 | 14.07416 | 35806 ft | 421 kts | 269° |
| 2026-02-17 13:53 | 46.96310 | 13.98897 | 35790 ft | 421 kts | 269° |
| 2026-02-17 13:54 | 46.95573 | 13.90441 | 35800 ft | 421 kts | 269° |
| 2026-02-17 13:54 | 46.94832 | 13.81952 | 35812 ft | 419 kts | 269° |
| 2026-02-17 13:55 | 46.93713 | 13.69273 | 35824 ft | 418 kts | 269° |
| 2026-02-17 13:55 | 46.92959 | 13.60853 | 35748 ft | 417 kts | 269° |
| 2026-02-17 13:56 | 46.92198 | 13.52390 | 35799 ft | 421 kts | 269° |
| 2026-02-17 13:56 | 46.91430 | 13.43885 | 35787 ft | 423 kts | 269° |
| 2026-02-17 13:57 | 46.90647 | 13.35358 | 35801 ft | 423 kts | 269° |
| 2026-02-17 13:57 | 46.89858 | 13.26822 | 35817 ft | 424 kts | 269° |
| 2026-02-17 13:58 | 46.89066 | 13.18312 | 35835 ft | 425 kts | 269° |
| 2026-02-17 13:59 | 46.87852 | 13.05485 | 35824 ft | 424 kts | 269° |
| 2026-02-17 13:59 | 46.87037 | 12.96954 | 35835 ft | 424 kts | 269° |
| 2026-02-17 14:00 | 46.86224 | 12.88432 | 35805 ft | 423 kts | 270° |
| 2026-02-17 14:00 | 46.85414 | 12.79938 | 35823 ft | 422 kts | 270° |
| 2026-02-17 14:01 | 46.84586 | 12.71442 | 35832 ft | 422 kts | 270° |
| 2026-02-17 14:01 | 46.83747 | 12.63017 | 35829 ft | 421 kts | 270° |
| 2026-02-17 14:02 | 46.82907 | 12.54550 | 35832 ft | 420 kts | 270° |
| 2026-02-17 14:02 | 46.82067 | 12.46114 | 35835 ft | 421 kts | 270° |
| 2026-02-17 14:03 | 46.80790 | 12.33454 | 35836 ft | 420 kts | 270° |
| 2026-02-17 14:03 | 46.79251 | 12.25115 | 35836 ft | 440 kts | 255° |
| 2026-02-17 14:04 | 46.76501 | 12.17097 | 35839 ft | 441 kts | 254° |
| 2026-02-17 14:04 | 46.73758 | 12.09168 | 35784 ft | 440 kts | 254° |
| 2026-02-17 14:05 | 46.71011 | 12.01204 | 35809 ft | 440 kts | 254° |
| 2026-02-17 14:05 | 46.68273 | 11.93240 | 35813 ft | 439 kts | 254° |
| 2026-02-17 14:06 | 46.65526 | 11.85306 | 35802 ft | 438 kts | 254° |
| 2026-02-17 14:07 | 46.61396 | 11.73418 | 35807 ft | 439 kts | 254° |
| 2026-02-17 14:07 | 46.58630 | 11.65506 | 35812 ft | 439 kts | 254° |
| 2026-02-17 14:08 | 46.55865 | 11.57601 | 35808 ft | 439 kts | 254° |
| 2026-02-17 14:08 | 46.53105 | 11.49740 | 35816 ft | 439 kts | 254° |
| 2026-02-17 14:09 | 46.50325 | 11.41854 | 35824 ft | 439 kts | 253° |
| 2026-02-17 14:09 | 46.47541 | 11.33960 | 35833 ft | 439 kts | 254° |
| 2026-02-17 14:10 | 46.44748 | 11.26083 | 35809 ft | 437 kts | 255° |
| 2026-02-17 14:10 | 46.41969 | 11.18266 | 35723 ft | 436 kts | 255° |
| 2026-02-17 14:11 | 46.37810 | 11.06577 | 35769 ft | 437 kts | 255° |
| 2026-02-17 14:11 | 46.35013 | 10.98769 | 35768 ft | 436 kts | 255° |
| 2026-02-17 14:12 | 46.32231 | 10.91057 | 35752 ft | 422 kts | 255° |
| 2026-02-17 14:12 | 46.29556 | 10.83666 | 35735 ft | 409 kts | 257° |
| 2026-02-17 14:13 | 46.28274 | 10.80012 | 35632 ft | 405 kts | 257° |
| 2026-02-17 14:13 | 46.27021 | 10.76376 | 35218 ft | 403 kts | 258° |
| 2026-02-17 14:13 | 46.25780 | 10.72737 | 34735 ft | 404 kts | 259° |
| 2026-02-17 14:13 | 46.24540 | 10.69100 | 34217 ft | 404 kts | 259° |
| 2026-02-17 14:14 | 46.23291 | 10.65458 | 33759 ft | 404 kts | 259° |
| 2026-02-17 14:14 | 46.22033 | 10.61831 | 33196 ft | 405 kts | 259° |
| 2026-02-17 14:14 | 46.20762 | 10.58202 | 32562 ft | 404 kts | 259° |
| 2026-02-17 14:15 | 46.18243 | 10.51087 | 31660 ft | 397 kts | 261° |
| 2026-02-17 14:15 | 46.16990 | 10.47559 | 31274 ft | 394 kts | 262° |
| 2026-02-17 14:15 | 46.15750 | 10.44058 | 30810 ft | 389 kts | 262° |
| 2026-02-17 14:15 | 46.14526 | 10.40605 | 30202 ft | 385 kts | 263° |
| 2026-02-17 14:16 | 46.13315 | 10.37175 | 29789 ft | 381 kts | 264° |
| 2026-02-17 14:16 | 46.12120 | 10.33793 | 29405 ft | 376 kts | 264° |
| 2026-02-17 14:16 | 46.10941 | 10.30449 | 28940 ft | 372 kts | 264° |
| 2026-02-17 14:16 | 46.09776 | 10.27147 | 28431 ft | 365 kts | 263° |
| 2026-02-17 14:17 | 46.08632 | 10.23950 | 28284 ft | 353 kts | 264° |
| 2026-02-17 14:17 | 46.07521 | 10.20875 | 28141 ft | 339 kts | 263° |
| 2026-02-17 14:17 | 46.06451 | 10.17909 | 27991 ft | 327 kts | 264° |
| 2026-02-17 14:17 | 46.05422 | 10.15035 | 27761 ft | 318 kts | 264° |
| 2026-02-17 14:18 | 46.04427 | 10.12225 | 27394 ft | 312 kts | 265° |
| 2026-02-17 14:18 | 46.03479 | 10.09477 | 26976 ft | 310 kts | 266° |
| 2026-02-17 14:18 | 46.02550 | 10.06641 | 26168 ft | 316 kts | 265° |
| 2026-02-17 14:19 | 46.00679 | 10.00894 | 25755 ft | 317 kts | 264° |
| 2026-02-17 14:19 | 45.99728 | 9.98032 | 25774 ft | 318 kts | 264° |
| 2026-02-17 14:19 | 45.98765 | 9.95161 | 25782 ft | 319 kts | 264° |
| 2026-02-17 14:19 | 45.97794 | 9.92283 | 25749 ft | 318 kts | 264° |
| 2026-02-17 14:20 | 45.96826 | 9.89442 | 25784 ft | 316 kts | 264° |
| 2026-02-17 14:20 | 45.95863 | 9.86609 | 25774 ft | 314 kts | 264° |
| 2026-02-17 14:20 | 45.94909 | 9.83797 | 25804 ft | 314 kts | 264° |
| 2026-02-17 14:20 | 45.93954 | 9.80970 | 25774 ft | 314 kts | 264° |
| 2026-02-17 14:21 | 45.93001 | 9.78140 | 25794 ft | 314 kts | 264° |
| 2026-02-17 14:21 | 45.92046 | 9.75317 | 25796 ft | 315 kts | 264° |
| 2026-02-17 14:21 | 45.91083 | 9.72468 | 25805 ft | 317 kts | 264° |
| 2026-02-17 14:21 | 45.90114 | 9.69616 | 25806 ft | 318 kts | 264° |
| 2026-02-17 14:22 | 45.89142 | 9.66776 | 25807 ft | 316 kts | 264° |
| 2026-02-17 14:22 | 45.87202 | 9.61094 | 25396 ft | 321 kts | 263° |
| 2026-02-17 14:23 | 45.85252 | 9.55413 | 23863 ft | 313 kts | 262° |
| 2026-02-17 14:23 | 45.84289 | 9.52642 | 23012 ft | 307 kts | 261° |
| 2026-02-17 14:23 | 45.83346 | 9.49920 | 22095 ft | 301 kts | 259° |
| 2026-02-17 14:23 | 45.82733 | 9.48145 | 21449 ft | 298 kts | 260° |
| 2026-02-17 14:24 | 45.81822 | 9.45482 | 20507 ft | 298 kts | 259° |
| 2026-02-17 14:24 | 45.80913 | 9.42825 | 19670 ft | 296 kts | 258° |
| 2026-02-17 14:24 | 45.80007 | 9.40185 | 18911 ft | 294 kts | 257° |
| 2026-02-17 14:24 | 45.79103 | 9.37564 | 18117 ft | 294 kts | 256° |
| 2026-02-17 14:25 | 45.78203 | 9.34950 | 17278 ft | 291 kts | 255° |
| 2026-02-17 14:25 | 45.77311 | 9.32359 | 16909 ft | 288 kts | 255° |
| 2026-02-17 14:25 | 45.76421 | 9.29778 | 16843 ft | 290 kts | 255° |
| 2026-02-17 14:25 | 45.75527 | 9.27185 | 16854 ft | 291 kts | 255° |
| 2026-02-17 14:26 | 45.74628 | 9.24584 | 16856 ft | 291 kts | 255° |
| 2026-02-17 14:26 | 45.73728 | 9.21986 | 16855 ft | 292 kts | 255° |
| 2026-02-17 14:26 | 45.72823 | 9.19377 | 16856 ft | 292 kts | 255° |
| 2026-02-17 14:27 | 45.70994 | 9.14105 | 16098 ft | 299 kts | 254° |
| 2026-02-17 14:27 | 45.70078 | 9.11492 | 15938 ft | 290 kts | 254° |
| 2026-02-17 14:27 | 45.69178 | 9.08928 | 15629 ft | 286 kts | 254° |
| 2026-02-17 14:27 | 45.68292 | 9.06389 | 15265 ft | 284 kts | 253° |
| 2026-02-17 14:28 | 45.67422 | 9.03896 | 14916 ft | 283 kts | 253° |
| 2026-02-17 14:28 | 45.66548 | 9.01391 | 14549 ft | 281 kts | 253° |
| 2026-02-17 14:28 | 45.65679 | 8.98896 | 14212 ft | 279 kts | 253° |
| 2026-02-17 14:28 | 45.64816 | 8.96420 | 13863 ft | 278 kts | 253° |
| 2026-02-17 14:29 | 45.63954 | 8.93957 | 13500 ft | 277 kts | 252° |
| 2026-02-17 14:29 | 45.63072 | 8.91516 | 13119 ft | 278 kts | 246° |
| 2026-02-17 14:29 | 45.61713 | 8.89511 | 12910 ft | 287 kts | 220° |
| 2026-02-17 14:29 | 45.59837 | 8.88485 | 12302 ft | 295 kts | 189° |
| 2026-02-17 14:30 | 45.57788 | 8.88715 | 11645 ft | 296 kts | 171° |
| 2026-02-17 14:30 | 45.55780 | 8.89281 | 11037 ft | 292 kts | 171° |
| 2026-02-17 14:31 | 45.50036 | 8.90896 | 9405 ft | 271 kts | 170° |
| 2026-02-17 14:31 | 45.48196 | 8.91401 | 8772 ft | 267 kts | 171° |
| 2026-02-17 14:31 | 45.46384 | 8.91891 | 8228 ft | 261 kts | 171° |
| 2026-02-17 14:31 | 45.44656 | 8.92357 | 7784 ft | 252 kts | 171° |
| 2026-02-17 14:32 | 45.42950 | 8.92817 | 7230 ft | 248 kts | 171° |
| 2026-02-17 14:32 | 45.41237 | 8.93281 | 6529 ft | 248 kts | 172° |
| 2026-02-17 14:32 | 45.39575 | 8.93730 | 6100 ft | 247 kts | 172° |
| 2026-02-17 14:32 | 45.37882 | 8.94184 | 5832 ft | 246 kts | 172° |
| 2026-02-17 14:33 | 45.36190 | 8.94639 | 5782 ft | 247 kts | 172° |
| 2026-02-17 14:33 | 45.32825 | 8.95553 | 5522 ft | 245 kts | 172° |
| 2026-02-17 14:33 | 45.31150 | 8.96003 | 5392 ft | 245 kts | 172° |
| 2026-02-17 14:34 | 45.29481 | 8.96026 | 5256 ft | 238 kts | 200° |
| 2026-02-17 14:34 | 45.28081 | 8.94888 | 5026 ft | 231 kts | 231° |
| 2026-02-17 14:34 | 45.27351 | 8.92911 | 4739 ft | 225 kts | 263° |
| 2026-02-17 14:35 | 45.28462 | 8.89136 | 4163 ft | 218 kts | 320° |
| 2026-02-17 14:35 | 45.29684 | 8.87844 | 3963 ft | 219 kts | 323° |
| 2026-02-17 14:35 | 45.30904 | 8.86640 | 3931 ft | 201 kts | 323° |
| 2026-02-17 14:35 | 45.31993 | 8.85582 | 3934 ft | 182 kts | 323° |
| 2026-02-17 14:36 | 45.33029 | 8.84579 | 3918 ft | 179 kts | 324° |
| 2026-02-17 14:36 | 45.34058 | 8.83578 | 3914 ft | 179 kts | 324° |
| 2026-02-17 14:36 | 45.35086 | 8.82574 | 3911 ft | 179 kts | 323° |
| 2026-02-17 14:36 | 45.36113 | 8.81571 | 3908 ft | 179 kts | 323° |
| 2026-02-17 14:37 | 45.37176 | 8.80637 | 3893 ft | 181 kts | 336° |
| 2026-02-17 14:37 | 45.38397 | 8.80162 | 3908 ft | 183 kts | 344° |
| 2026-02-17 14:37 | 45.39624 | 8.79795 | 3909 ft | 183 kts | 345° |
| 2026-02-17 14:37 | 45.40874 | 8.79444 | 3912 ft | 183 kts | 346° |
| 2026-02-17 14:38 | 45.42122 | 8.79100 | 3913 ft | 182 kts | 346° |
| 2026-02-17 14:38 | 45.43368 | 8.78758 | 4007 ft | 182 kts | 346° |
| 2026-02-17 14:38 | 45.44624 | 8.78413 | 4004 ft | 184 kts | 348° |
| 2026-02-17 14:39 | 45.47051 | 8.77747 | 3638 ft | 175 kts | 348° |
| 2026-02-17 14:39 | 45.48245 | 8.77420 | 3433 ft | 175 kts | 348° |
| 2026-02-17 14:39 | 45.49430 | 8.77094 | 3209 ft | 173 kts | 348° |
| 2026-02-17 14:39 | 45.50612 | 8.76769 | 2965 ft | 173 kts | 349° |
| 2026-02-17 14:40 | 45.51785 | 8.76447 | 2723 ft | 171 kts | 349° |
| 2026-02-17 14:40 | 45.52951 | 8.76126 | 2481 ft | 166 kts | 349° |
| 2026-02-17 14:40 | 45.55071 | 8.75543 | 2069 ft | 149 kts | 349° |
| 2026-02-17 14:41 | 45.56087 | 8.75263 | 1863 ft | 148 kts | 349° |
| 2026-02-17 14:41 | 45.57098 | 8.74984 | 1662 ft | 148 kts | 349° |
| 2026-02-17 14:41 | 45.58108 | 8.74706 | 1434 ft | 148 kts | 349° |
| 2026-02-17 14:41 | 45.59108 | 8.74429 | 1242 ft | 147 kts | 349° |
| 2026-02-17 14:42 | 45.60115 | 8.74151 | 1069 ft | 147 kts | 349° |
| 2026-02-17 14:42 | 45.61115 | 8.73872 | 882 ft | 147 kts | 349° |
| 2026-02-17 14:42 | 45.62112 | 8.73596 | 758 ft | 141 kts | 349° |
| 2026-02-17 14:43 | 45.63477 | 8.73224 | 744 ft | 55 kts | 349° |
| 2026-02-17 14:43 | 45.63708 | 8.73081 | 746 ft | 27 kts | 323° |
| 2026-02-17 14:43 | 45.63806 | 8.72938 | 749 ft | 14 kts | 304° |
| 2026-02-17 14:43 | 45.63860 | 8.72823 | 750 ft | 15 kts | 304° |
| 2026-02-17 14:44 | 45.63922 | 8.72692 | 747 ft | 18 kts | 303° |
| 2026-02-17 14:44 | 45.63952 | 8.72525 | 750 ft | 17 kts | 261° |
| 2026-02-17 14:44 | 45.63930 | 8.72364 | 752 ft | 16 kts | 259° |
| 2026-02-17 14:44 | 45.63918 | 8.72248 | 751 ft | 0 kts | 267° |
| 2026-02-17 14:47 | 45.63914 | 8.72113 | 745 ft | 17 kts | 267° |
| 2026-02-17 14:47 | 45.63899 | 8.71926 | 748 ft | 18 kts | 250° |
| 2026-02-17 14:47 | 45.63813 | 8.71825 | 747 ft | 17 kts | 181° |
| 2026-02-17 14:47 | 45.63687 | 8.71857 | 752 ft | 20 kts | 169° |
| 2026-02-17 14:48 | 45.63541 | 8.71896 | 750 ft | 22 kts | 169° |
| 2026-02-17 14:48 | 45.63390 | 8.71937 | 751 ft | 22 kts | 169° |
| 2026-02-17 14:48 | 45.63235 | 8.71981 | 747 ft | 23 kts | 169° |
| 2026-02-17 14:48 | 45.63076 | 8.72024 | 750 ft | 23 kts | 169° |
| 2026-02-17 14:49 | 45.62914 | 8.72069 | 751 ft | 24 kts | 169° |
| 2026-02-17 14:49 | 45.62769 | 8.72109 | 751 ft | 17 kts | 168° |
| 2026-02-17 14:49 | 45.62674 | 8.72046 | 751 ft | 16 kts | 251° |
| 2026-02-17 14:49 | 45.62658 | 8.71892 | 753 ft | 16 kts | 258° |
| 2026-02-17 14:50 | 45.62603 | 8.71819 | 749 ft | 9 kts | 223° |
| 2026-02-17 14:50 | 45.62561 | 8.71749 | 750 ft | 7 kts | 231° |
| 2026-02-17 14:50 | 45.62552 | 8.71733 | 750 ft | 0 kts | 232° |